sensor_id;sensor_type;location;lat;lon;timestamp;P1;durP1;ratioP1;P2;durP2;ratioP2
45940;SDS011;31858;46.008;8.978;2022-07-23T00:09:57;6.93;;;5.30;;
45940;SDS011;31858;46.008;8.978;2022-07-23T00:20:00;6.55;;;5.50;;
45940;SDS011;31858;46.008;8.978;2022-07-23T00:30:02;8.88;;;5.65;;
45940;SDS011;31858;46.008;8.978;2022-07-23T00:40:06;8.63;;;6.32;;
45940;SDS011;31858;46.008;8.978;2022-07-23T00:50:10;18.48;;;3.58;;
45940;SDS011;31858;46.008;8.978;2022-07-23T01:00:13;13.02;;;5.40;;
45940;SDS011;31858;46.008;8.978;2022-07-23T01:10:16;9.50;;;4.15;;
45940;SDS011;31858;46.008;8.978;2022-07-23T01:20:34;6.78;;;2.28;;
45940;SDS011;31858;46.008;8.978;2022-07-23T01:30:38;4.38;;;2.53;;
45940;SDS011;31858;46.008;8.978;2022-07-23T01:40:39;5.53;;;3.10;;
45940;SDS011;31858;46.008;8.978;2022-07-23T01:50:42;5.30;;;2.40;;
45940;SDS011;31858;46.008;8.978;2022-07-23T02:00:44;4.03;;;2.60;;
45940;SDS011;31858;46.008;8.978;2022-07-23T02:10:47;3.85;;;2.10;;
45940;SDS011;31858;46.008;8.978;2022-07-23T02:20:51;2.72;;;2.53;;
45940;SDS011;31858;46.008;8.978;2022-07-23T02:30:54;2.88;;;2.60;;
45940;SDS011;31858;46.008;8.978;2022-07-23T02:40:55;3.97;;;2.83;;
45940;SDS011;31858;46.008;8.978;2022-07-23T02:50:59;6.55;;;2.40;;
45940;SDS011;31858;46.008;8.978;2022-07-23T03:01:00;5.75;;;3.20;;
45940;SDS011;31858;46.008;8.978;2022-07-23T03:11:03;4.93;;;2.90;;
45940;SDS011;31858;46.008;8.978;2022-07-23T03:21:08;3.53;;;2.92;;
45940;SDS011;31858;46.008;8.978;2022-07-23T03:31:11;3.40;;;2.63;;
45940;SDS011;31858;46.008;8.978;2022-07-23T03:41:12;3.22;;;2.78;;
45940;SDS011;31858;46.008;8.978;2022-07-23T03:51:15;4.38;;;3.15;;
45940;SDS011;31858;46.008;8.978;2022-07-23T04:01:17;6.00;;;3.22;;
45940;SDS011;31858;46.008;8.978;2022-07-23T04:11:20;3.45;;;2.92;;
45940;SDS011;31858;46.008;8.978;2022-07-23T04:21:22;5.03;;;3.10;;
45940;SDS011;31858;46.008;8.978;2022-07-23T04:31:25;3.85;;;3.30;;
45940;SDS011;31858;46.008;8.978;2022-07-23T04:41:27;3.30;;;3.00;;
45940;SDS011;31858;46.008;8.978;2022-07-23T04:51:30;3.13;;;2.92;;
45940;SDS011;31858;46.008;8.978;2022-07-23T05:01:31;6.38;;;2.95;;
45940;SDS011;31858;46.008;8.978;2022-07-23T05:11:34;4.13;;;3.50;;
45940;SDS011;31858;46.008;8.978;2022-07-23T05:21:36;5.72;;;3.13;;
45940;SDS011;31858;46.008;8.978;2022-07-23T05:31:39;4.57;;;3.20;;
45940;SDS011;31858;46.008;8.978;2022-07-23T05:41:41;3.40;;;3.10;;
45940;SDS011;31858;46.008;8.978;2022-07-23T05:51:44;4.20;;;2.80;;
45940;SDS011;31858;46.008;8.978;2022-07-23T06:01:45;5.63;;;3.15;;
45940;SDS011;31858;46.008;8.978;2022-07-23T06:11:48;9.30;;;6.68;;
45940;SDS011;31858;46.008;8.978;2022-07-23T06:21:50;3.35;;;2.58;;
45940;SDS011;31858;46.008;8.978;2022-07-23T06:31:53;3.25;;;2.67;;
45940;SDS011;31858;46.008;8.978;2022-07-23T06:41:55;3.45;;;2.90;;
45940;SDS011;31858;46.008;8.978;2022-07-23T06:51:58;4.97;;;3.03;;
45940;SDS011;31858;46.008;8.978;2022-07-23T07:01:59;3.42;;;3.13;;
45940;SDS011;31858;46.008;8.978;2022-07-23T07:12:03;7.22;;;2.70;;
45940;SDS011;31858;46.008;8.978;2022-07-23T07:22:05;6.25;;;3.03;;
45940;SDS011;31858;46.008;8.978;2022-07-23T07:32:08;8.10;;;3.15;;
45940;SDS011;31858;46.008;8.978;2022-07-23T07:42:09;3.58;;;3.28;;
45940;SDS011;31858;46.008;8.978;2022-07-23T07:52:13;9.13;;;4.30;;
45940;SDS011;31858;46.008;8.978;2022-07-23T08:02:14;7.40;;;6.35;;
45940;SDS011;31858;46.008;8.978;2022-07-23T08:12:17;4.40;;;3.63;;
45940;SDS011;31858;46.008;8.978;2022-07-23T08:22:19;4.22;;;3.80;;
45940;SDS011;31858;46.008;8.978;2022-07-23T08:32:22;4.45;;;4.05;;
45940;SDS011;31858;46.008;8.978;2022-07-23T08:42:23;7.38;;;3.78;;
45940;SDS011;31858;46.008;8.978;2022-07-23T08:52:27;4.40;;;3.70;;
45940;SDS011;31858;46.008;8.978;2022-07-23T09:02:34;4.88;;;4.45;;
45940;SDS011;31858;46.008;8.978;2022-07-23T09:12:42;4.32;;;3.97;;
45940;SDS011;31858;46.008;8.978;2022-07-23T09:22:44;4.45;;;4.03;;
45940;SDS011;31858;46.008;8.978;2022-07-23T09:43:11;5.22;;;4.20;;
45940;SDS011;31858;46.008;8.978;2022-07-23T09:53:23;6.03;;;4.80;;
45940;SDS011;31858;46.008;8.978;2022-07-23T10:03:25;5.05;;;4.00;;
45940;SDS011;31858;46.008;8.978;2022-07-23T10:13:28;5.95;;;4.40;;
45940;SDS011;31858;46.008;8.978;2022-07-23T10:23:51;4.22;;;3.92;;
45940;SDS011;31858;46.008;8.978;2022-07-23T10:34:11;5.60;;;3.90;;
45940;SDS011;31858;46.008;8.978;2022-07-23T10:44:20;7.05;;;6.35;;
45940;SDS011;31858;46.008;8.978;2022-07-23T10:54:25;5.03;;;4.53;;
45940;SDS011;31858;46.008;8.978;2022-07-23T11:15:00;4.63;;;3.72;;
45940;SDS011;31858;46.008;8.978;2022-07-23T11:25:02;4.13;;;3.72;;
45940;SDS011;31858;46.008;8.978;2022-07-23T11:35:26;4.25;;;3.63;;
45940;SDS011;31858;46.008;8.978;2022-07-23T11:45:32;3.83;;;3.53;;
45940;SDS011;31858;46.008;8.978;2022-07-23T11:55:36;4.88;;;2.90;;
45940;SDS011;31858;46.008;8.978;2022-07-23T12:05:39;5.15;;;3.30;;
45940;SDS011;31858;46.008;8.978;2022-07-23T12:15:43;7.47;;;5.28;;
45940;SDS011;31858;46.008;8.978;2022-07-23T12:25:48;7.25;;;3.40;;
45940;SDS011;31858;46.008;8.978;2022-07-23T12:35:53;5.63;;;3.95;;
45940;SDS011;31858;46.008;8.978;2022-07-23T12:45:56;6.75;;;3.92;;
45940;SDS011;31858;46.008;8.978;2022-07-23T12:56:05;7.63;;;3.92;;
45940;SDS011;31858;46.008;8.978;2022-07-23T13:06:09;15.32;;;5.05;;
45940;SDS011;31858;46.008;8.978;2022-07-23T13:16:13;5.10;;;4.15;;
45940;SDS011;31858;46.008;8.978;2022-07-23T13:26:15;6.57;;;5.85;;
45940;SDS011;31858;46.008;8.978;2022-07-23T13:36:18;7.85;;;5.00;;
45940;SDS011;31858;46.008;8.978;2022-07-23T13:46:19;4.43;;;4.03;;
45940;SDS011;31858;46.008;8.978;2022-07-23T13:56:22;8.45;;;6.18;;
45940;SDS011;31858;46.008;8.978;2022-07-23T14:06:24;7.07;;;4.78;;
45940;SDS011;31858;46.008;8.978;2022-07-23T14:16:27;7.03;;;4.38;;
45940;SDS011;31858;46.008;8.978;2022-07-23T14:26:29;5.07;;;4.57;;
45940;SDS011;31858;46.008;8.978;2022-07-23T14:36:32;7.18;;;4.60;;
45940;SDS011;31858;46.008;8.978;2022-07-23T14:46:34;6.25;;;5.18;;
45940;SDS011;31858;46.008;8.978;2022-07-23T14:56:37;5.13;;;4.50;;
45940;SDS011;31858;46.008;8.978;2022-07-23T15:06:39;5.60;;;4.88;;
45940;SDS011;31858;46.008;8.978;2022-07-23T15:16:42;5.15;;;4.65;;
45940;SDS011;31858;46.008;8.978;2022-07-23T15:26:43;8.25;;;5.55;;
45940;SDS011;31858;46.008;8.978;2022-07-23T15:36:46;9.50;;;4.90;;
45940;SDS011;31858;46.008;8.978;2022-07-23T15:46:48;5.32;;;4.78;;
45940;SDS011;31858;46.008;8.978;2022-07-23T15:56:51;9.27;;;5.35;;
45940;SDS011;31858;46.008;8.978;2022-07-23T16:06:53;8.52;;;5.30;;
45940;SDS011;31858;46.008;8.978;2022-07-23T16:16:56;5.78;;;5.13;;
45940;SDS011;31858;46.008;8.978;2022-07-23T16:26:58;5.57;;;5.07;;
45940;SDS011;31858;46.008;8.978;2022-07-23T16:37:01;9.45;;;5.28;;
45940;SDS011;31858;46.008;8.978;2022-07-23T16:47:02;8.30;;;5.20;;
45940;SDS011;31858;46.008;8.978;2022-07-23T16:57:06;8.35;;;5.47;;
45940;SDS011;31858;46.008;8.978;2022-07-23T17:07:08;7.03;;;5.43;;
45940;SDS011;31858;46.008;8.978;2022-07-23T17:17:11;5.93;;;5.40;;
45940;SDS011;31858;46.008;8.978;2022-07-23T17:27:13;8.50;;;5.78;;
45940;SDS011;31858;46.008;8.978;2022-07-23T17:37:16;8.80;;;5.90;;
45940;SDS011;31858;46.008;8.978;2022-07-23T17:47:18;10.20;;;5.80;;
45940;SDS011;31858;46.008;8.978;2022-07-23T17:57:21;11.63;;;6.25;;
45940;SDS011;31858;46.008;8.978;2022-07-23T18:07:23;7.45;;;6.18;;
45940;SDS011;31858;46.008;8.978;2022-07-23T18:17:26;6.53;;;5.57;;
45940;SDS011;31858;46.008;8.978;2022-07-23T18:27:28;6.43;;;5.88;;
45940;SDS011;31858;46.008;8.978;2022-07-23T18:37:32;8.10;;;5.65;;
45940;SDS011;31858;46.008;8.978;2022-07-23T18:47:34;7.82;;;6.13;;
45940;SDS011;31858;46.008;8.978;2022-07-23T18:57:38;8.57;;;6.38;;
45940;SDS011;31858;46.008;8.978;2022-07-23T19:07:40;11.27;;;6.93;;
45940;SDS011;31858;46.008;8.978;2022-07-23T19:17:43;12.40;;;7.28;;
45940;SDS011;31858;46.008;8.978;2022-07-23T19:27:44;9.25;;;6.20;;
45940;SDS011;31858;46.008;8.978;2022-07-23T19:37:47;9.10;;;6.03;;
45940;SDS011;31858;46.008;8.978;2022-07-23T19:47:49;7.15;;;6.47;;
45940;SDS011;31858;46.008;8.978;2022-07-23T19:57:52;12.27;;;7.00;;
45940;SDS011;31858;46.008;8.978;2022-07-23T20:07:55;9.85;;;7.20;;
45940;SDS011;31858;46.008;8.978;2022-07-23T20:17:58;8.18;;;7.20;;
45940;SDS011;31858;46.008;8.978;2022-07-23T20:28:01;7.93;;;6.85;;
45940;SDS011;31858;46.008;8.978;2022-07-23T20:38:04;10.23;;;6.85;;
45940;SDS011;31858;46.008;8.978;2022-07-23T20:48:06;13.35;;;7.43;;
45940;SDS011;31858;46.008;8.978;2022-07-23T20:58:09;9.32;;;7.60;;
45940;SDS011;31858;46.008;8.978;2022-07-23T21:08:11;7.68;;;6.88;;
45940;SDS011;31858;46.008;8.978;2022-07-23T21:18:14;8.48;;;7.22;;
45940;SDS011;31858;46.008;8.978;2022-07-23T21:28:15;8.05;;;6.65;;
45940;SDS011;31858;46.008;8.978;2022-07-23T21:38:19;9.68;;;6.40;;
45940;SDS011;31858;46.008;8.978;2022-07-23T21:48:20;7.75;;;5.90;;
45940;SDS011;31858;46.008;8.978;2022-07-23T21:58:24;11.30;;;6.68;;
45940;SDS011;31858;46.008;8.978;2022-07-23T22:08:26;8.52;;;6.13;;
45940;SDS011;31858;46.008;8.978;2022-07-23T22:18:29;8.18;;;5.65;;
45940;SDS011;31858;46.008;8.978;2022-07-23T22:28:30;8.35;;;6.13;;
45940;SDS011;31858;46.008;8.978;2022-07-23T22:38:33;7.28;;;6.18;;
45940;SDS011;31858;46.008;8.978;2022-07-23T22:48:35;9.65;;;6.60;;
45940;SDS011;31858;46.008;8.978;2022-07-23T22:58:38;6.05;;;5.50;;
45940;SDS011;31858;46.008;8.978;2022-07-23T23:08:40;7.75;;;7.00;;
45940;SDS011;31858;46.008;8.978;2022-07-23T23:18:43;7.13;;;6.50;;
45940;SDS011;31858;46.008;8.978;2022-07-23T23:28:44;12.32;;;7.18;;
45940;SDS011;31858;46.008;8.978;2022-07-23T23:38:47;9.48;;;6.90;;
45940;SDS011;31858;46.008;8.978;2022-07-23T23:48:49;9.57;;;8.45;;
45940;SDS011;31858;46.008;8.978;2022-07-23T23:58:52;7.88;;;6.68;;
